createdAt,value
2023-01-15T00:02:28.876Z,11.20
2023-01-15T00:05:31.680Z,12.90
2023-01-15T00:08:42.835Z,13.60
2023-01-15T00:11:51.924Z,10.80
2023-01-15T00:14:54.669Z,10.70
2023-01-15T00:18:03.845Z,10.60
2023-01-15T00:21:14.839Z,10.50
2023-01-15T00:24:43.880Z,10.40
2023-01-15T00:27:46.730Z,10.30
2023-01-15T00:30:55.834Z,10.20
2023-01-15T00:34:04.816Z,10.10
2023-01-15T00:37:22.666Z,10.00
2023-01-15T00:40:34.084Z,10.00
2023-01-15T00:43:36.799Z,10.20
2023-01-15T00:46:46.881Z,9.90
2023-01-15T00:49:59.779Z,10.50
2023-01-15T00:53:02.474Z,9.80
2023-01-15T00:56:13.783Z,8.80
2023-01-15T00:59:22.812Z,9.70
2023-01-15T01:02:26.430Z,9.70
2023-01-15T01:05:35.773Z,9.60
2023-01-15T01:08:44.788Z,9.60
2023-01-15T01:11:51.181Z,9.60
2023-01-15T01:15:00.776Z,7.80
2023-01-15T01:18:10.773Z,9.60
2023-01-15T01:21:13.548Z,9.60
2023-01-15T01:24:25.359Z,9.60
2023-01-15T01:27:29.428Z,9.50
2023-01-15T01:30:38.747Z,9.50
2023-01-15T01:33:48.745Z,9.50
2023-01-15T01:36:52.647Z,9.60
2023-01-15T01:40:02.779Z,9.40
2023-01-15T01:43:26.800Z,8.90
2023-01-15T01:46:38.390Z,9.30
2023-01-15T01:50:10.768Z,10.90
2023-01-15T01:53:18.125Z,9.30
2023-01-15T01:56:27.731Z,9.20
2023-01-15T01:59:46.462Z,9.10
2023-01-15T02:02:51.803Z,9.10
2023-01-15T02:06:03.697Z,9.10
2023-01-15T02:09:06.803Z,9.10
2023-01-15T02:12:21.157Z,9.00
2023-01-15T02:15:38.745Z,9.00
2023-01-15T02:18:47.528Z,9.00
2023-01-15T02:22:28.485Z,9.00
2023-01-15T02:25:47.732Z,9.10
2023-01-15T02:28:55.452Z,8.90
2023-01-15T02:32:09.704Z,8.90
2023-01-15T02:35:29.691Z,8.90
2023-01-15T02:38:36.982Z,8.90
2023-01-15T02:41:52.675Z,8.90
2023-01-15T02:45:00.994Z,8.80
2023-01-15T02:48:15.672Z,8.90
2023-01-15T02:51:23.063Z,8.80
2023-01-15T02:54:35.678Z,8.80
2023-01-15T02:57:40.688Z,8.80
2023-01-15T03:00:56.794Z,8.80
2023-01-15T03:04:11.654Z,8.80
2023-01-15T03:07:26.653Z,8.90
2023-01-15T03:10:46.515Z,8.90
2023-01-15T03:14:01.647Z,8.80
2023-01-15T03:17:14.739Z,6.70
2023-01-15T03:20:27.661Z,8.90
2023-01-15T03:23:38.627Z,8.90
2023-01-15T03:26:42.139Z,8.90
2023-01-15T03:29:55.763Z,9.80
2023-01-15T03:32:59.795Z,8.90
2023-01-15T03:36:08.611Z,8.90
2023-01-15T03:39:17.605Z,8.90
2023-01-15T03:42:40.643Z,8.90
2023-01-15T03:45:54.649Z,8.90
2023-01-15T03:49:03.215Z,9.40
2023-01-15T03:52:21.576Z,8.90
2023-01-15T03:55:36.618Z,9.00
2023-01-15T03:58:50.872Z,9.00
2023-01-15T04:02:02.761Z,9.00
2023-01-15T04:05:08.036Z,9.00
2023-01-15T04:08:18.633Z,9.00
2023-01-15T04:11:25.921Z,9.00
2023-01-15T04:14:37.717Z,8.90
2023-01-15T04:17:48.709Z,8.90
2023-01-15T04:21:00.591Z,8.90
2023-01-15T04:24:09.590Z,8.90
2023-01-15T04:27:12.732Z,8.70
2023-01-15T04:30:23.776Z,8.90
2023-01-15T04:33:33.853Z,8.90
2023-01-15T04:36:45.550Z,8.90
2023-01-15T04:39:55.595Z,8.90
2023-01-15T04:43:22.775Z,8.90
2023-01-15T04:46:39.597Z,8.90
2023-01-15T04:49:48.582Z,8.90
2023-01-15T04:53:01.551Z,8.90
2023-01-15T04:56:12.556Z,8.80
2023-01-15T04:59:23.861Z,8.80
2023-01-15T05:02:33.648Z,9.20
2023-01-15T05:05:36.416Z,8.80
2023-01-15T05:08:46.573Z,8.80
2023-01-15T05:12:02.566Z,8.70
2023-01-15T05:15:06.524Z,8.70
2023-01-15T05:18:15.922Z,8.80
2023-01-15T05:21:21.924Z,8.70
2023-01-15T05:24:32.545Z,8.70
2023-01-15T05:27:35.432Z,8.70
2023-01-15T05:30:45.236Z,8.80
2023-01-15T05:33:56.558Z,8.70
2023-01-15T05:37:05.885Z,8.70
2023-01-15T05:40:18.535Z,8.80
2023-01-15T05:43:27.551Z,8.80
2023-01-15T05:46:36.567Z,8.80
2023-01-15T05:49:45.939Z,8.80
2023-01-15T05:52:55.494Z,8.80
2023-01-15T05:56:08.491Z,8.90
2023-01-15T05:59:17.520Z,8.80
2023-01-15T06:02:27.492Z,8.80
2023-01-15T06:05:37.493Z,8.80
2023-01-15T06:08:58.558Z,8.80
2023-01-15T06:12:09.511Z,8.90
2023-01-15T06:15:12.817Z,8.90
2023-01-15T06:18:22.499Z,8.80
2023-01-15T06:21:25.242Z,8.80
2023-01-15T06:24:34.502Z,8.80
2023-01-15T06:27:39.255Z,8.80
2023-01-15T06:30:48.446Z,8.80
2023-01-15T06:33:57.442Z,8.80
2023-01-15T06:37:06.472Z,8.70
2023-01-15T06:40:17.442Z,8.70
2023-01-15T06:43:39.378Z,8.70
2023-01-15T06:47:09.440Z,8.70
2023-01-15T06:50:19.442Z,8.70
2023-01-15T06:53:30.191Z,8.70
2023-01-15T06:56:39.424Z,8.70
2023-01-15T06:59:43.540Z,8.70
2023-01-15T07:02:52.426Z,8.80
2023-01-15T07:06:01.451Z,8.70
2023-01-15T07:09:04.776Z,8.70
2023-01-15T07:15:46.410Z,7.90
2023-01-15T07:18:55.434Z,8.70
2023-01-15T07:21:58.127Z,8.80
2023-01-15T07:25:08.388Z,8.70
2023-01-15T07:28:18.424Z,8.80
2023-01-15T07:31:22.529Z,8.80
2023-01-15T07:34:48.432Z,8.80
2023-01-15T07:37:58.944Z,8.80
2023-01-15T07:41:27.568Z,6.60
2023-01-15T07:44:54.368Z,8.80
2023-01-15T07:48:15.975Z,8.80
2023-01-15T07:51:25.387Z,8.70
2023-01-15T07:54:41.399Z,8.60
2023-01-15T07:57:44.769Z,8.50
2023-01-15T08:00:54.412Z,7.50
2023-01-15T08:03:58.575Z,8.30
2023-01-15T08:07:08.380Z,8.20
2023-01-15T08:10:20.354Z,8.20
2023-01-15T08:13:48.514Z,8.30
2023-01-15T08:16:57.644Z,8.30
2023-01-15T08:20:08.349Z,8.30
2023-01-15T08:23:18.371Z,8.30
2023-01-15T08:26:21.054Z,8.40
2023-01-15T08:29:30.335Z,8.40
2023-01-15T08:32:34.212Z,8.60
2023-01-15T08:35:51.322Z,8.60
2023-01-15T08:39:00.359Z,8.70
2023-01-15T08:42:03.648Z,8.70
2023-01-15T08:45:15.547Z,8.80
2023-01-15T08:48:18.225Z,9.80
2023-01-15T08:51:28.306Z,8.80
2023-01-15T08:54:38.340Z,8.90
2023-01-15T08:57:48.297Z,8.90
2023-01-15T09:00:53.032Z,9.00
2023-01-15T09:04:02.304Z,10.40
2023-01-15T09:07:06.946Z,9.10
2023-01-15T09:10:17.266Z,9.10
2023-01-15T09:13:19.996Z,9.20
2023-01-15T09:16:30.325Z,9.20
2023-01-15T09:19:33.127Z,7.70
2023-01-15T09:22:45.611Z,9.30
2023-01-15T09:25:54.842Z,9.60
2023-01-15T09:29:05.288Z,9.40
2023-01-15T09:32:23.318Z,9.40
2023-01-15T09:35:32.287Z,9.40
2023-01-15T09:38:44.295Z,9.40
2023-01-15T09:42:17.694Z,9.80
2023-01-15T09:45:32.972Z,9.40
2023-01-15T09:48:56.332Z,9.40
2023-01-15T09:52:13.285Z,9.40
2023-01-15T09:55:27.298Z,9.40
2023-01-15T09:58:42.971Z,9.50
2023-01-15T10:01:54.322Z,9.50
2023-01-15T10:05:08.941Z,9.60
2023-01-15T10:08:18.788Z,9.60
2023-01-15T10:12:02.299Z,10.40
2023-01-15T10:15:26.963Z,9.70
2023-01-15T10:18:30.652Z,9.70
2023-01-15T10:21:57.247Z,9.70
2023-01-15T10:25:12.250Z,9.70
2023-01-15T10:28:31.283Z,9.90
2023-01-15T10:31:57.273Z,9.70
2023-01-15T10:35:32.175Z,9.80
2023-01-15T10:38:51.238Z,11.00
2023-01-15T10:46:09.240Z,9.80
2023-01-15T10:49:21.309Z,9.80
2023-01-15T10:52:30.141Z,9.80
2023-01-15T10:55:43.251Z,10.00
2023-01-15T10:59:18.211Z,9.90
2023-01-15T11:02:29.090Z,9.90
2023-01-15T11:05:40.225Z,10.00
2023-01-15T11:09:09.252Z,10.00
2023-01-15T11:12:40.816Z,10.10
2023-01-15T11:16:12.262Z,10.20
2023-01-15T11:19:47.181Z,10.20
2023-01-15T11:22:50.196Z,10.30
2023-01-15T11:26:02.170Z,10.20
2023-01-15T11:29:16.212Z,10.20
2023-01-15T11:32:36.155Z,10.10
2023-01-15T11:35:58.245Z,10.10
2023-01-15T11:39:01.916Z,10.10
2023-01-15T11:42:30.907Z,10.00
2023-01-15T11:46:09.221Z,10.00
2023-01-15T11:49:30.225Z,9.90
2023-01-15T11:52:41.149Z,9.80
2023-01-15T11:56:01.216Z,9.80
2023-01-15T11:59:17.136Z,9.80
2023-01-15T12:02:37.122Z,9.80
2023-01-15T12:05:54.442Z,9.80
2023-01-15T12:09:12.128Z,9.80
2023-01-15T12:12:39.105Z,9.80
2023-01-15T12:16:01.151Z,9.80
2023-01-15T12:19:21.103Z,9.80
2023-01-15T12:22:53.124Z,9.80
2023-01-15T12:26:13.113Z,9.80
2023-01-15T12:29:29.112Z,9.90
2023-01-15T12:32:44.299Z,10.00
2023-01-15T12:36:05.091Z,10.10
2023-01-15T12:39:23.099Z,10.10
2023-01-15T12:42:55.236Z,9.60
2023-01-15T12:46:07.128Z,10.10
2023-01-15T12:49:24.119Z,10.10
2023-01-15T12:52:41.352Z,10.00
2023-01-15T12:55:49.557Z,9.90
2023-01-15T12:59:06.106Z,9.80
2023-01-15T13:06:02.448Z,9.70
2023-01-15T13:09:23.025Z,9.60
2023-01-15T13:12:36.186Z,9.50
2023-01-15T13:15:53.108Z,9.50
2023-01-15T13:19:10.470Z,9.50
2023-01-15T13:22:25.413Z,9.50
2023-01-15T13:25:48.116Z,9.50
2023-01-15T13:29:06.669Z,9.50
2023-01-15T13:32:22.468Z,9.50
2023-01-15T13:35:31.466Z,9.50
2023-01-15T13:38:48.101Z,9.50
2023-01-15T13:42:13.111Z,9.50
2023-01-15T13:45:36.873Z,9.50
2023-01-15T13:48:53.611Z,9.40
2023-01-15T13:52:06.163Z,9.40
2023-01-15T13:55:14.121Z,9.40
2023-01-15T13:58:31.282Z,9.30
2023-01-15T14:01:36.676Z,9.30
2023-01-15T14:04:48.073Z,9.30
2023-01-15T14:07:58.278Z,9.30
2023-01-15T14:11:04.460Z,9.20
2023-01-15T14:14:43.032Z,10.90
2023-01-15T14:18:08.529Z,9.30
2023-01-15T14:21:33.061Z,9.30
2023-01-15T14:25:12.043Z,9.30
2023-01-15T14:28:47.739Z,9.30
2023-01-15T14:32:09.453Z,9.30
2023-01-15T14:35:16.643Z,9.30
2023-01-15T14:38:31.972Z,9.30
2023-01-15T14:42:05.045Z,9.30
2023-01-15T14:45:23.057Z,7.10
2023-01-15T14:48:39.781Z,9.30
2023-01-15T14:51:58.004Z,9.30
2023-01-15T14:55:09.722Z,9.30
2023-01-15T14:58:32.778Z,9.30
2023-01-15T15:01:40.300Z,10.80
2023-01-15T15:05:04.647Z,9.30
2023-01-15T15:08:11.427Z,9.30
2023-01-15T15:12:02.044Z,9.30
2023-01-15T15:15:18.957Z,9.20
2023-01-15T15:18:38.028Z,9.20
2023-01-15T15:21:46.670Z,9.20
2023-01-15T15:24:59.962Z,9.10
2023-01-15T15:28:07.270Z,9.00
2023-01-15T15:31:19.027Z,8.80
2023-01-15T15:34:34.941Z,8.70
2023-01-15T15:37:37.718Z,8.50
2023-01-15T15:40:53.897Z,8.50
2023-01-15T15:44:16.464Z,10.00
2023-01-15T15:47:43.933Z,8.40
2023-01-15T15:50:54.904Z,8.30
2023-01-15T15:54:05.299Z,8.30
2023-01-15T15:57:20.906Z,8.20
2023-01-15T16:00:48.485Z,8.10
2023-01-15T16:03:57.887Z,8.10
2023-01-15T16:07:07.932Z,8.30
2023-01-15T16:10:24.301Z,8.10
2023-01-15T16:17:12.897Z,8.10
2023-01-15T16:20:17.705Z,8.10
2023-01-15T16:23:29.949Z,8.10
2023-01-15T16:26:42.866Z,8.10
2023-01-15T16:29:50.776Z,8.10
2023-01-15T16:33:03.455Z,8.10
2023-01-15T16:36:08.746Z,8.10
2023-01-15T16:39:30.856Z,8.10
2023-01-15T16:46:23.892Z,8.10
2023-01-15T16:49:36.668Z,8.10
2023-01-15T16:52:58.798Z,8.20
2023-01-15T16:56:01.652Z,8.20
2023-01-15T16:59:12.865Z,8.30
2023-01-15T17:02:20.288Z,8.30
2023-01-15T17:05:33.824Z,8.30
2023-01-15T17:08:45.819Z,8.30
2023-01-15T17:11:50.893Z,8.40
2023-01-15T17:15:03.544Z,8.40
2023-01-15T17:18:28.842Z,8.40
2023-01-15T17:21:32.977Z,8.30
2023-01-15T17:24:44.744Z,8.30
2023-01-15T17:27:47.971Z,8.40
2023-01-15T17:30:58.892Z,8.30
2023-01-15T17:34:04.295Z,8.40
2023-01-15T17:37:15.886Z,8.40
2023-01-15T17:40:26.830Z,8.40
2023-01-15T17:43:29.847Z,8.40
2023-01-15T17:46:40.872Z,8.40
2023-01-15T17:49:49.776Z,8.40
2023-01-15T17:52:53.866Z,8.30
2023-01-15T17:56:20.817Z,8.30
2023-01-15T17:59:53.819Z,8.30
2023-01-15T18:03:20.764Z,8.20
2023-01-15T18:06:29.795Z,8.20
2023-01-15T18:09:35.584Z,5.90
2023-01-15T18:12:44.781Z,8.20
2023-01-15T18:15:53.792Z,8.20
2023-01-15T18:19:02.765Z,8.30
2023-01-15T18:22:05.535Z,8.30
2023-01-15T18:25:18.753Z,8.40
2023-01-15T18:28:21.516Z,8.50
2023-01-15T18:31:32.183Z,8.50
2023-01-15T18:34:48.754Z,6.10
2023-01-15T18:37:51.432Z,8.70
2023-01-15T18:41:01.746Z,8.70
2023-01-15T18:44:27.252Z,8.80
2023-01-15T18:47:37.741Z,9.10
2023-01-15T18:50:40.425Z,9.00
2023-01-15T18:53:50.203Z,9.00
2023-01-15T18:57:01.045Z,9.10
2023-01-15T19:00:11.722Z,9.10
2023-01-15T19:03:14.548Z,9.20
2023-01-15T19:10:02.019Z,9.20
2023-01-15T19:13:25.696Z,10.50
2023-01-15T19:17:00.635Z,9.20
2023-01-15T19:20:09.698Z,9.20
2023-01-15T19:23:19.687Z,9.20
2023-01-15T19:26:22.431Z,9.20
2023-01-15T19:29:33.680Z,9.20
2023-01-15T19:32:45.156Z,9.20
2023-01-15T19:35:54.678Z,10.50
2023-01-15T19:38:58.385Z,9.10
2023-01-15T19:42:26.685Z,9.20
2023-01-15T19:45:48.676Z,10.60
2023-01-15T19:49:15.648Z,9.10
2023-01-15T19:52:43.668Z,9.20
2023-01-15T19:55:47.293Z,9.10
2023-01-15T19:59:03.248Z,9.10
2023-01-15T20:02:07.330Z,9.20
2023-01-15T20:05:18.124Z,9.10
2023-01-15T20:08:27.630Z,9.10
2023-01-15T20:11:50.791Z,9.00
2023-01-15T20:15:01.665Z,9.00
2023-01-15T20:18:12.661Z,6.70
2023-01-15T20:21:23.347Z,8.90
2023-01-15T20:24:26.101Z,10.60
2023-01-15T20:27:39.436Z,8.90
2023-01-15T20:30:42.222Z,8.80
2023-01-15T20:33:54.622Z,8.80
2023-01-15T20:37:03.654Z,8.80
2023-01-15T20:40:07.703Z,8.80
2023-01-15T20:43:36.571Z,8.80
2023-01-15T20:46:39.357Z,8.80
2023-01-15T20:49:48.635Z,8.80
2023-01-15T20:53:00.357Z,8.70
2023-01-15T20:56:03.785Z,8.70
2023-01-15T20:59:12.604Z,8.70
2023-01-15T21:02:22.554Z,8.70
2023-01-15T21:05:27.391Z,8.70
2023-01-15T21:08:36.629Z,8.70
2023-01-15T21:11:39.319Z,8.70
2023-01-15T21:14:48.607Z,8.70
2023-01-15T21:17:59.497Z,8.70
2023-01-15T21:21:08.653Z,10.30
2023-01-15T21:24:17.582Z,8.70
2023-01-15T21:27:20.265Z,8.80
2023-01-15T21:30:31.583Z,8.80
2023-01-15T21:33:40.584Z,8.80
2023-01-15T21:36:51.555Z,8.80
2023-01-15T21:39:54.780Z,8.80
2023-01-15T21:43:21.564Z,8.80
2023-01-15T21:46:33.545Z,8.80
2023-01-15T21:49:36.487Z,9.80
2023-01-15T21:52:48.799Z,8.70
2023-01-15T21:55:52.363Z,8.70
2023-01-15T21:59:09.630Z,8.80
2023-01-15T22:02:17.263Z,8.70
2023-01-15T22:05:28.531Z,8.70
2023-01-15T22:08:39.558Z,8.70
2023-01-15T22:11:46.562Z,8.70
2023-01-15T22:14:57.801Z,8.70
2023-01-15T22:18:00.738Z,8.70
2023-01-15T22:21:12.534Z,8.70
2023-01-15T22:24:16.952Z,8.60
2023-01-15T22:27:27.523Z,8.60
2023-01-15T22:30:36.573Z,8.70
2023-01-15T22:33:39.343Z,8.70
2023-01-15T22:36:49.501Z,8.70
2023-01-15T22:40:01.518Z,8.70
2023-01-15T22:43:10.490Z,8.70
2023-01-15T22:46:21.806Z,8.70
2023-01-15T22:49:25.290Z,8.70
2023-01-15T22:52:34.536Z,8.60
2023-01-15T22:55:38.668Z,8.60
2023-01-15T22:58:48.850Z,8.60
2023-01-15T23:01:51.732Z,8.50
2023-01-15T23:05:03.485Z,8.40
2023-01-15T23:08:13.458Z,8.40
2023-01-15T23:11:19.006Z,8.40
2023-01-15T23:14:28.481Z,8.40
2023-01-15T23:17:31.745Z,8.30
2023-01-15T23:20:41.450Z,8.30
2023-01-15T23:23:50.444Z,9.90
2023-01-15T23:27:01.935Z,8.20
2023-01-15T23:30:12.479Z,8.20
2023-01-15T23:33:21.470Z,8.20
2023-01-15T23:36:25.211Z,8.20
2023-01-15T23:39:34.475Z,8.10
2023-01-15T23:42:56.185Z,5.90
2023-01-15T23:46:23.487Z,8.10
2023-01-15T23:49:32.468Z,8.10
2023-01-15T23:52:42.426Z,8.00
2023-01-15T23:55:53.454Z,8.10
2023-01-15T23:59:05.437Z,9.90
